createdAt,value
2023-11-16T00:00:34.416Z,100752.75
2023-11-16T00:03:03.563Z,100763.19
2023-11-16T00:05:30.729Z,100765.78
2023-11-16T00:07:59.407Z,100775.38
2023-11-16T00:10:26.385Z,100780.59
2023-11-16T00:12:55.918Z,100779.75
2023-11-16T00:15:23.245Z,100773.63
2023-11-16T00:17:50.178Z,100767.53
2023-11-16T00:20:17.600Z,100771.00
2023-11-16T00:22:44.342Z,100767.53
2023-11-16T00:25:11.444Z,100768.41
2023-11-16T00:27:38.747Z,100759.69
2023-11-16T00:30:06.495Z,100757.94
2023-11-16T00:32:33.837Z,100761.44
2023-11-16T00:35:01.729Z,100753.63
2023-11-16T00:37:28.814Z,100746.63
2023-11-16T00:39:59.501Z,100741.41
2023-11-16T00:42:29.780Z,100732.69
2023-11-16T00:44:57.952Z,100734.41
2023-11-16T00:47:25.982Z,100743.97
2023-11-16T00:49:52.981Z,100743.13
2023-11-16T00:52:21.928Z,100744.84
2023-11-16T00:54:51.813Z,100743.09
2023-11-16T00:57:21.899Z,100732.69
2023-11-16T00:59:49.046Z,100739.63
2023-11-16T01:02:16.390Z,100745.75
2023-11-16T01:04:43.318Z,100748.31
2023-11-16T01:07:11.896Z,100745.69
2023-11-16T01:09:39.899Z,100745.69
2023-11-16T01:12:15.876Z,100742.22
2023-11-16T01:14:44.361Z,100741.31
2023-11-16T01:17:20.638Z,100736.97
2023-11-16T01:19:49.136Z,100739.56
2023-11-16T01:22:17.953Z,100732.63
2023-11-16T01:24:47.962Z,100740.47
2023-11-16T01:27:17.561Z,100736.09
2023-11-16T01:29:45.725Z,100739.56
2023-11-16T01:32:14.172Z,100745.69
2023-11-16T01:34:43.887Z,100743.09
2023-11-16T01:37:11.825Z,100741.34
2023-11-16T01:39:42.448Z,100743.06
2023-11-16T01:42:11.334Z,100742.19
2023-11-16T01:44:40.207Z,100748.28
2023-11-16T01:47:10.443Z,100743.91
2023-11-16T01:49:37.840Z,100752.53
2023-11-16T01:52:05.692Z,100755.13
2023-11-16T01:54:35.434Z,100756.78
2023-11-16T01:57:02.852Z,100758.50
2023-11-16T01:59:29.854Z,100759.34
2023-11-16T02:01:58.555Z,100757.59
2023-11-16T02:04:25.588Z,100751.47
2023-11-16T02:06:54.856Z,100758.44
2023-11-16T02:09:22.931Z,100756.69
2023-11-16T02:11:50.194Z,100745.38
2023-11-16T02:14:17.150Z,100740.13
2023-11-16T02:16:44.137Z,100748.81
2023-11-16T02:19:32.769Z,100742.69
2023-11-16T02:22:00.612Z,100727.91
2023-11-16T02:24:28.958Z,100727.03
2023-11-16T02:26:56.163Z,100720.88
2023-11-16T02:29:23.330Z,100707.00
2023-11-16T02:31:50.259Z,100709.59
2023-11-16T02:34:17.225Z,100704.41
2023-11-16T02:36:44.178Z,100701.75
2023-11-16T02:39:15.028Z,100696.50
2023-11-16T02:41:42.702Z,100699.09
2023-11-16T02:44:09.628Z,100708.63
2023-11-16T02:46:36.860Z,100704.28
2023-11-16T02:49:03.840Z,100698.19
2023-11-16T02:51:32.810Z,100688.66
2023-11-16T02:54:03.950Z,100686.03
2023-11-16T02:56:30.819Z,100685.94
2023-11-16T02:58:57.712Z,100677.25
2023-11-16T03:01:25.116Z,100672.84
2023-11-16T03:03:51.935Z,100661.56
2023-11-16T03:06:18.829Z,100654.53
2023-11-16T03:08:47.117Z,100651.00
2023-11-16T03:11:15.337Z,100655.31
2023-11-16T03:13:45.468Z,100664.00
2023-11-16T03:16:12.444Z,100665.84
2023-11-16T03:18:40.830Z,100658.00
2023-11-16T03:21:08.014Z,100658.03
2023-11-16T03:23:37.591Z,100664.94
2023-11-16T03:26:07.441Z,100661.56
2023-11-16T03:28:37.174Z,100659.69
2023-11-16T03:31:07.132Z,100673.59
2023-11-16T03:33:34.216Z,100673.53
2023-11-16T03:36:01.294Z,100659.75
2023-11-16T03:38:28.514Z,100652.81
2023-11-16T03:40:55.328Z,100648.41
2023-11-16T03:43:23.907Z,100638.09
2023-11-16T03:45:50.761Z,100639.88
2023-11-16T03:48:17.727Z,100640.72
2023-11-16T03:50:44.629Z,100642.50
2023-11-16T03:53:11.810Z,100644.25
2023-11-16T03:55:41.160Z,100639.06
2023-11-16T03:58:09.116Z,100639.06
2023-11-16T04:00:35.879Z,100637.31
2023-11-16T04:03:04.484Z,100640.84
2023-11-16T04:05:34.303Z,100644.31
2023-11-16T04:08:01.318Z,100639.94
2023-11-16T04:10:28.229Z,100635.63
2023-11-16T04:12:55.068Z,100642.59
2023-11-16T04:15:21.891Z,100640.00
2023-11-16T04:17:49.189Z,100638.25
2023-11-16T04:20:16.178Z,100629.59
2023-11-16T04:22:43.000Z,100615.69
2023-11-16T04:25:24.489Z,100621.78
2023-11-16T04:27:51.419Z,100623.53
2023-11-16T04:30:19.731Z,100618.34
2023-11-16T04:32:46.812Z,100628.78
2023-11-16T04:35:16.986Z,100624.47
2023-11-16T04:37:43.892Z,100626.25
2023-11-16T04:40:11.295Z,100614.81
2023-11-16T04:42:38.096Z,100616.47
2023-11-16T04:45:05.413Z,100620.75
2023-11-16T04:47:32.365Z,100613.81
2023-11-16T04:49:59.226Z,100625.06
2023-11-16T04:52:30.118Z,100632.06
2023-11-16T04:54:57.404Z,100635.50
2023-11-16T04:57:24.238Z,100634.59
2023-11-16T04:59:51.071Z,100637.19
2023-11-16T05:02:17.884Z,100632.91
2023-11-16T05:04:45.512Z,100637.28
2023-11-16T05:07:13.776Z,100639.91
2023-11-16T05:09:40.857Z,100631.16
2023-11-16T05:12:07.880Z,100611.19
2023-11-16T05:14:34.688Z,100606.00
2023-11-16T05:17:02.489Z,100610.38
2023-11-16T05:19:29.164Z,100603.44
2023-11-16T05:21:56.169Z,100610.41
2023-11-16T05:24:24.453Z,100599.06
2023-11-16T05:26:51.465Z,100599.13
2023-11-16T05:29:18.403Z,100590.41
2023-11-16T05:31:49.402Z,100580.84
2023-11-16T05:34:16.567Z,100579.97
2023-11-16T05:36:43.317Z,100587.78
2023-11-16T05:39:10.849Z,100579.97
2023-11-16T05:41:37.687Z,100579.09
2023-11-16T05:44:05.061Z,100574.75
2023-11-16T05:46:33.444Z,100573.03
2023-11-16T05:49:00.409Z,100570.41
2023-11-16T05:51:27.322Z,100572.16
2023-11-16T05:53:54.137Z,100567.84
2023-11-16T05:56:22.049Z,100561.75
2023-11-16T05:58:50.484Z,100556.53
2023-11-16T06:01:19.148Z,100556.53
2023-11-16T06:03:45.959Z,100553.06
2023-11-16T06:06:13.403Z,100554.78
2023-11-16T06:08:41.191Z,100546.94
2023-11-16T06:11:09.502Z,100546.94
2023-11-16T06:13:36.919Z,100543.47
2023-11-16T06:16:03.831Z,100545.19
2023-11-16T06:18:30.705Z,100546.94
2023-11-16T06:20:57.520Z,100535.59
2023-11-16T06:23:24.342Z,100535.56
2023-11-16T06:25:51.081Z,100534.72
2023-11-16T06:28:17.863Z,100533.78
2023-11-16T06:30:45.210Z,100534.66
2023-11-16T06:33:12.092Z,100525.94
2023-11-16T06:35:39.008Z,100532.06
2023-11-16T06:38:10.563Z,100531.16
2023-11-16T06:40:38.234Z,100527.69
2023-11-16T06:43:05.185Z,100526.84
2023-11-16T06:45:39.137Z,100528.53
2023-11-16T06:48:07.212Z,100521.59
2023-11-16T06:50:35.416Z,100524.22
2023-11-16T06:53:07.365Z,100520.66
2023-11-16T06:55:34.193Z,100512.81
2023-11-16T06:58:01.137Z,100519.78
2023-11-16T07:00:28.739Z,100514.59
2023-11-16T07:02:56.055Z,100508.50
2023-11-16T07:05:23.298Z,100501.56
2023-11-16T07:07:50.621Z,100505.91
2023-11-16T07:10:17.451Z,100493.72
2023-11-16T07:12:44.421Z,100494.59
2023-11-16T07:15:11.709Z,100491.13
2023-11-16T07:17:39.524Z,100493.81
2023-11-16T07:20:07.246Z,100495.59
2023-11-16T07:22:34.174Z,100492.19
2023-11-16T07:25:05.744Z,100488.69
2023-11-16T07:27:33.440Z,100478.28
2023-11-16T07:30:00.284Z,100467.84
2023-11-16T07:32:27.044Z,100459.19
2023-11-16T07:34:53.859Z,100456.63
2023-11-16T07:37:20.722Z,100463.56
2023-11-16T07:39:47.549Z,100468.75
2023-11-16T07:42:15.182Z,100471.38
2023-11-16T07:44:45.392Z,100474.88
2023-11-16T07:47:12.277Z,100472.25
2023-11-16T07:49:39.890Z,100464.44
2023-11-16T07:52:08.093Z,100465.31
2023-11-16T07:54:35.738Z,100467.06
2023-11-16T07:57:04.288Z,100468.81
2023-11-16T07:59:36.238Z,100467.94
2023-11-16T08:02:03.394Z,100474.03
2023-11-16T08:04:33.443Z,100461.91
2023-11-16T08:07:01.978Z,100449.72
2023-11-16T08:09:31.041Z,100451.44
2023-11-16T08:11:58.940Z,100447.13
2023-11-16T08:14:27.134Z,100431.50
2023-11-16T08:16:58.713Z,100428.88
2023-11-16T08:19:33.172Z,100442.81
2023-11-16T08:22:00.923Z,100430.63
2023-11-16T08:24:28.013Z,100425.44
2023-11-16T08:26:57.976Z,100436.75
2023-11-16T08:29:25.225Z,100413.28
2023-11-16T08:31:58.326Z,100421.09
2023-11-16T08:34:28.228Z,100414.13
2023-11-16T08:36:55.159Z,100415.88
2023-11-16T08:39:22.032Z,100408.06
2023-11-16T08:41:50.205Z,100410.66
2023-11-16T08:44:19.898Z,100411.53
2023-11-16T08:46:53.883Z,100399.38
2023-11-16T08:49:24.553Z,100392.41
2023-11-16T08:52:01.062Z,100394.13
2023-11-16T08:54:30.051Z,100389.81
2023-11-16T08:56:59.198Z,100380.22
2023-11-16T08:59:27.867Z,100378.50
2023-11-16T09:01:56.344Z,100369.78
2023-11-16T09:04:25.490Z,100369.81
2023-11-16T09:06:52.735Z,100364.59
2023-11-16T09:09:37.047Z,100355.91
2023-11-16T09:12:07.087Z,100348.06
2023-11-16T09:14:36.887Z,100343.72
2023-11-16T09:19:34.369Z,100337.63
2023-11-16T09:22:04.292Z,100330.66
2023-11-16T09:24:31.422Z,100329.75
2023-11-16T09:26:59.389Z,100319.31
2023-11-16T09:29:29.699Z,100323.66
2023-11-16T09:31:56.523Z,100310.63
2023-11-16T09:34:23.879Z,100305.41
2023-11-16T09:36:51.607Z,100294.94
2023-11-16T09:39:18.498Z,100296.63
2023-11-16T09:41:50.593Z,100286.19
2023-11-16T09:44:18.886Z,100282.72
2023-11-16T09:46:49.006Z,100270.50
2023-11-16T09:49:18.864Z,100277.47
2023-11-16T09:51:46.822Z,100273.06
2023-11-16T09:54:14.088Z,100259.13
2023-11-16T09:56:43.174Z,100252.16
2023-11-16T09:59:28.972Z,100239.09
2023-11-16T10:02:11.684Z,100224.25
2023-11-16T10:04:43.255Z,100226.84
2023-11-16T10:07:18.040Z,100220.75
2023-11-16T10:09:45.438Z,100209.38
2023-11-16T10:12:12.802Z,100207.66
2023-11-16T10:14:42.155Z,100204.16
2023-11-16T10:17:09.015Z,100200.63
2023-11-16T10:19:36.062Z,100180.66
2023-11-16T10:22:03.032Z,100165.81
2023-11-16T10:24:34.843Z,100164.03
2023-11-16T10:27:02.927Z,100157.97
2023-11-16T10:29:29.864Z,100148.31
2023-11-16T10:31:58.236Z,100130.91
2023-11-16T10:34:26.138Z,100123.91
2023-11-16T10:36:56.848Z,100129.16
2023-11-16T10:39:26.551Z,100118.69
2023-11-16T10:41:53.798Z,100108.25
2023-11-16T10:44:24.483Z,100091.72
2023-11-16T10:46:52.771Z,100084.78
2023-11-16T10:52:22.433Z,100073.50
2023-11-16T11:24:16.510Z,100028.22
2023-11-16T11:44:38.001Z,100050.94
2023-11-16T11:47:40.746Z,100044.03
2023-11-16T11:50:49.648Z,100040.53
2023-11-16T11:53:18.677Z,100030.13
2023-11-16T11:55:48.446Z,100020.56
2023-11-16T11:58:19.401Z,100011.03
2023-11-16T12:00:50.397Z,100026.78
2023-11-16T12:03:18.658Z,100029.47
2023-11-16T12:05:49.239Z,100024.31
2023-11-16T12:08:16.194Z,100034.78
2023-11-16T12:10:43.390Z,100023.50
2023-11-16T12:13:10.820Z,100024.38
2023-11-16T12:15:37.959Z,100004.31
2023-11-16T12:18:09.219Z,99979.94
2023-11-16T12:20:38.099Z,99969.47
2023-11-16T12:23:06.997Z,99976.47
2023-11-16T12:25:37.461Z,99971.28
2023-11-16T12:30:52.250Z,99989.53
2023-11-16T12:37:05.497Z,99976.53
2023-11-16T12:39:33.225Z,99959.09
2023-11-16T12:42:08.884Z,99955.56
2023-11-16T12:44:35.694Z,99948.69
2023-11-16T12:47:03.686Z,99926.94
2023-11-16T12:49:30.689Z,99913.88
2023-11-16T12:51:58.130Z,99912.19
2023-11-16T12:54:25.783Z,99903.56
2023-11-16T12:56:54.338Z,99895.75
2023-11-16T12:59:23.457Z,99883.63
2023-11-16T13:01:52.925Z,99872.28
2023-11-16T13:13:23.377Z,99836.44
2023-11-16T13:15:57.336Z,99828.56
2023-11-16T13:18:25.947Z,99818.13
2023-11-16T13:20:52.736Z,99818.88
2023-11-16T13:23:19.638Z,99822.28
2023-11-16T13:25:46.547Z,99820.59
2023-11-16T13:28:13.436Z,99809.34
2023-11-16T13:30:41.496Z,99812.81
2023-11-16T13:33:08.794Z,99800.63
2023-11-16T13:35:36.526Z,99800.75
2023-11-16T13:38:03.465Z,99799.84
2023-11-16T13:40:30.610Z,99789.34
2023-11-16T13:43:31.854Z,99789.44
2023-11-16T13:46:00.276Z,99788.41
2023-11-16T13:48:27.168Z,99784.94
2023-11-16T13:50:56.692Z,99788.41
2023-11-16T13:53:23.568Z,99783.22
2023-11-16T13:55:50.436Z,99783.22
2023-11-16T13:58:17.210Z,99781.44
2023-11-16T14:00:45.688Z,99775.38
2023-11-16T14:03:14.310Z,99764.19
2023-11-16T14:05:42.902Z,99769.53
2023-11-16T14:08:09.838Z,99759.13
2023-11-16T14:10:36.756Z,99758.19
2023-11-16T14:13:03.874Z,99755.56
2023-11-16T14:15:31.074Z,99759.03
2023-11-16T14:17:57.956Z,99753.75
2023-11-16T14:20:25.009Z,99748.47
2023-11-16T14:22:52.054Z,99757.19
2023-11-16T14:25:27.911Z,99746.78
2023-11-16T14:28:01.617Z,99747.69
2023-11-16T14:30:28.437Z,99741.59
2023-11-16T14:32:55.310Z,99743.34
2023-11-16T14:35:23.951Z,99737.28
2023-11-16T14:37:51.821Z,99733.88
2023-11-16T14:40:18.579Z,99737.31
2023-11-16T14:42:46.643Z,99725.19
2023-11-16T14:45:13.471Z,99724.34
2023-11-16T14:47:41.142Z,99724.34
2023-11-16T14:50:14.399Z,99713.94
2023-11-16T14:52:43.703Z,99711.31
2023-11-16T14:55:11.184Z,99702.69
2023-11-16T14:57:41.592Z,99702.72
2023-11-16T15:00:09.885Z,99705.28
2023-11-16T15:02:37.633Z,99703.50
2023-11-16T15:05:09.959Z,99705.25
2023-11-16T15:07:39.574Z,99693.06
2023-11-16T15:10:12.396Z,99693.03
2023-11-16T15:12:39.734Z,99691.28
2023-11-16T15:15:07.031Z,99690.41
2023-11-16T15:17:33.817Z,99684.41
2023-11-16T15:20:09.192Z,99687.91
2023-11-16T15:22:48.196Z,99688.78
2023-11-16T15:25:18.098Z,99687.06
2023-11-16T15:27:44.917Z,99681.81
2023-11-16T15:30:14.791Z,99677.41
2023-11-16T15:32:42.039Z,99670.41
2023-11-16T15:35:10.502Z,99657.22
2023-11-16T15:37:37.562Z,99651.41
2023-11-16T15:40:06.391Z,99639.44
2023-11-16T15:42:34.873Z,99627.25
2023-11-16T15:45:02.493Z,99625.50
2023-11-16T15:47:29.523Z,99613.34
2023-11-16T15:49:56.524Z,99609.06
2023-11-16T15:52:24.444Z,99606.47
2023-11-16T15:54:52.605Z,99608.19
2023-11-16T15:57:30.133Z,99619.47
2023-11-16T16:00:39.234Z,99622.09
2023-11-16T16:03:23.977Z,99617.75
2023-11-16T16:05:55.578Z,99620.34
2023-11-16T16:12:12.988Z,99596.00
2023-11-16T16:14:49.408Z,99584.78
2023-11-16T16:17:26.898Z,99580.41
2023-11-16T16:23:10.800Z,99580.50
2023-11-16T16:25:49.558Z,99570.16
2023-11-16T16:31:28.806Z,99577.09
2023-11-16T16:36:39.351Z,99573.63
2023-11-16T16:39:10.927Z,99577.09
2023-11-16T16:41:43.837Z,99565.03
2023-11-16T16:44:14.170Z,99569.28
2023-11-16T16:46:44.243Z,99558.09
2023-11-16T16:49:19.196Z,99556.28
2023-11-16T16:51:46.641Z,99558.03
2023-11-16T16:54:15.510Z,99561.53
2023-11-16T16:56:44.987Z,99563.31
2023-11-16T16:59:12.132Z,99556.31
2023-11-16T17:01:39.268Z,99563.31
2023-11-16T17:04:07.519Z,99570.25
2023-11-16T17:06:34.705Z,99559.81
2023-11-16T17:09:03.444Z,99562.47
2023-11-16T17:11:30.433Z,99563.34
2023-11-16T17:13:57.770Z,99561.56
2023-11-16T17:16:27.792Z,99561.56
2023-11-16T17:19:03.051Z,99567.66
2023-11-16T17:21:30.047Z,99568.50
2023-11-16T17:23:56.965Z,99571.94
2023-11-16T17:26:23.864Z,99562.47
2023-11-16T17:28:51.290Z,99568.59
2023-11-16T17:31:19.196Z,99569.44
2023-11-16T17:33:46.778Z,99564.22
2023-11-16T17:36:14.089Z,99569.41
2023-11-16T17:38:51.026Z,99559.88
2023-11-16T17:44:43.289Z,99565.13
2023-11-16T17:47:23.305Z,99561.75
2023-11-16T17:53:28.148Z,99560.88
2023-11-16T18:17:08.138Z,99558.38
2023-11-16T18:19:37.110Z,99556.66
2023-11-16T18:24:57.867Z,99553.31
2023-11-16T18:27:39.095Z,99548.03
2023-11-16T18:30:13.336Z,99539.44
2023-11-16T18:32:51.339Z,99545.56
2023-11-16T18:35:29.120Z,99550.81
2023-11-16T18:43:36.768Z,99549.94
2023-11-16T18:46:09.298Z,99555.19
2023-11-16T18:48:41.994Z,99563.91
2023-11-16T18:53:57.958Z,99558.69
2023-11-16T18:59:15.521Z,99551.88
2023-11-16T19:01:52.536Z,99555.34
2023-11-16T19:07:03.592Z,99562.28
2023-11-16T19:09:35.242Z,99560.59
2023-11-16T19:13:09.009Z,99553.59
2023-11-16T19:18:20.064Z,99556.28
2023-11-16T19:21:05.411Z,99564.94
2023-11-16T19:23:58.005Z,99571.91
2023-11-16T19:26:33.967Z,99568.47
2023-11-16T19:29:03.266Z,99568.44
2023-11-16T19:35:06.222Z,99550.28
2023-11-16T19:37:34.301Z,99550.28
2023-11-16T19:41:00.410Z,99557.22
2023-11-16T19:43:42.838Z,99548.59
2023-11-16T19:46:26.029Z,99548.56
2023-11-16T19:48:52.884Z,99540.75
2023-11-16T19:51:19.941Z,99537.31
2023-11-16T19:53:55.961Z,99527.78
2023-11-16T19:56:26.639Z,99528.63
2023-11-16T19:58:59.812Z,99534.72
2023-11-16T20:01:30.147Z,99540.78
2023-11-16T20:03:57.528Z,99542.50
2023-11-16T20:06:26.221Z,99544.22
2023-11-16T20:08:56.106Z,99545.97
2023-11-16T20:11:23.805Z,99539.06
2023-11-16T20:13:51.968Z,99545.16
2023-11-16T20:16:20.393Z,99537.34
2023-11-16T20:18:47.559Z,99536.44
2023-11-16T20:21:14.807Z,99541.66
2023-11-16T20:23:44.443Z,99544.25
2023-11-16T20:26:14.621Z,99535.59
2023-11-16T20:28:42.553Z,99532.16
2023-11-16T20:31:10.032Z,99531.22
2023-11-16T20:33:36.921Z,99526.06
2023-11-16T20:36:05.099Z,99534.72
2023-11-16T20:38:34.268Z,99533.84
2023-11-16T20:41:02.434Z,99531.22
2023-11-16T20:43:29.967Z,99542.53
2023-11-16T20:46:00.807Z,99535.56
2023-11-16T20:48:34.681Z,99538.19
2023-11-16T20:51:06.105Z,99538.16
2023-11-16T20:53:33.074Z,99546.03
2023-11-16T20:55:59.935Z,99544.25
2023-11-16T20:58:26.989Z,99554.63
2023-11-16T21:00:53.992Z,99563.34
2023-11-16T21:03:21.273Z,99561.63
2023-11-16T21:05:49.487Z,99572.00
2023-11-16T21:08:20.274Z,99577.22
2023-11-16T21:10:55.179Z,99585.06
2023-11-16T21:13:22.198Z,99592.03
2023-11-16T21:15:49.226Z,99595.47
2023-11-16T21:18:16.377Z,99605.84
2023-11-16T21:20:43.617Z,99607.59
2023-11-16T21:23:10.616Z,99614.53
2023-11-16T21:25:37.634Z,99618.88
2023-11-16T21:28:06.174Z,99620.63
2023-11-16T21:30:33.587Z,99625.84
2023-11-16T21:33:01.878Z,99624.09
2023-11-16T21:35:29.055Z,99636.22
2023-11-16T21:38:04.101Z,99644.03
2023-11-16T21:40:32.410Z,99656.19
2023-11-16T21:42:59.336Z,99657.94
2023-11-16T21:45:26.104Z,99669.22
2023-11-16T21:47:53.741Z,99683.09
2023-11-16T21:50:22.542Z,99692.66
2023-11-16T21:52:49.395Z,99698.69
2023-11-16T21:55:16.680Z,99714.34
2023-11-16T21:57:43.954Z,99713.47
2023-11-16T22:00:12.601Z,99724.75
2023-11-16T22:02:39.523Z,99731.69
2023-11-16T22:05:24.731Z,99741.25
2023-11-16T22:07:51.509Z,99749.94
2023-11-16T22:10:24.245Z,99750.81
2023-11-16T22:12:56.143Z,99773.38
2023-11-16T22:15:27.753Z,99775.09
2023-11-16T22:18:02.701Z,99776.84
2023-11-16T22:20:29.674Z,99796.81
2023-11-16T22:22:59.121Z,99801.13
2023-11-16T22:25:33.448Z,99818.50
2023-11-16T22:28:00.838Z,99830.66
2023-11-16T22:30:34.177Z,99843.66
2023-11-16T22:33:06.077Z,99852.34
2023-11-16T22:35:38.753Z,99856.69
2023-11-16T22:38:06.195Z,99863.63
2023-11-16T22:40:33.085Z,99870.59
2023-11-16T22:43:00.789Z,99880.09
2023-11-16T22:48:10.969Z,99901.84
2023-11-16T22:50:38.999Z,99913.97
2023-11-16T22:53:05.822Z,99909.66
2023-11-16T22:55:37.029Z,99922.66
2023-11-16T22:58:35.066Z,99930.47
2023-11-16T23:01:24.090Z,99946.09
2023-11-16T23:03:52.579Z,99949.53
2023-11-16T23:06:19.726Z,99957.34
2023-11-16T23:08:46.732Z,99967.75
2023-11-16T23:11:16.248Z,99979.94
2023-11-16T23:13:44.669Z,99983.38
2023-11-16T23:16:12.763Z,99999.00
2023-11-16T23:18:39.642Z,100010.28
2023-11-16T23:21:09.461Z,100017.25
2023-11-16T23:23:36.297Z,100024.19
2023-11-16T23:26:04.867Z,100028.50
2023-11-16T23:28:34.909Z,100044.13
2023-11-16T23:31:06.501Z,100048.47
2023-11-16T23:33:37.995Z,100055.44
2023-11-16T23:36:05.145Z,100071.91
2023-11-16T23:38:32.721Z,100074.50
2023-11-16T23:41:01.697Z,100074.50
2023-11-16T23:43:28.945Z,100086.69
2023-11-16T23:45:57.152Z,100092.75
2023-11-16T23:48:23.970Z,100098.81
2023-11-16T23:50:50.719Z,100111.81
2023-11-16T23:53:19.367Z,100109.22
2023-11-16T23:55:47.214Z,100114.44
2023-11-16T23:58:14.265Z,100123.97
